• Join FlightAware (Why Join?)
  • Login
  • US Flag 
04:42PM EST


 

Airport Tracker/Info


-or-


 

Live Flight TrackerFlight Track Log ✈ N528QS ✈ 27-Jul-2013 ✈ KSLC - KPPA

Flight Track Log - Related Links

Times and Time Zones

All times are in EDT time to prevent confusion due to time zone crossing. See the N528QS flight status page for this flight to view local times or setup timezone preferences in your user account.

Time Position Orientation Groundspeed Altitude Reporting Facility
EDT Latitude Longitude Course Direction KTS MPH feet Rate Location/Type
04:55PM 40.7950 -111.9636 355° North 182 209 5,000  Level Salt Lake Center
04:56PM 40.8500 -111.9703 355° North 228 262 7,900 3,496 Climbing Salt Lake Center
04:57PM 40.9239 -111.9622 North 284 327 11,700 3,226 Climbing Salt Lake Center
04:57PM 40.9422 -111.9253 57° Northeast 302 348 12,900 1,958 Climbing Salt Lake Center
04:58PM 40.8981 -111.7850 113° Southeast 380 437 14,800 2,177 Climbing Salt Lake Center
04:59PM 40.8331 -111.6633 125° Southeast 407 468 17,400 2,613 Climbing Salt Lake Center
05:00PM 40.7628 -111.5342 126° Southeast 433 498 20,200 2,613 Climbing Salt Lake Center
05:02PM 40.6925 -111.3983 124° Southeast 451 519 22,800 2,226 Climbing Salt Lake Center
05:03PM 40.6408 -111.2394 113° Southeast 472 543 24,800 2,274 Climbing Salt Lake Center
05:04PM 40.5836 -111.0381 110° East 487 560 27,500 2,274 Climbing Salt Lake Center
05:05PM 40.5322 -110.8611 111° Southeast 514 592 29,500 2,129 Climbing Salt Lake Center
05:06PM 40.4814 -110.6825 110° East 523 602 31,900 1,694 Climbing Salt Lake Center
05:07PM 40.4319 -110.5117 111° Southeast 519 597 33,000 532 Climbing Salt Lake Center
05:08PM 40.3594 -110.3228 117° Southeast 520 598 33,000  Level Salt Lake Center
05:09PM 40.2931 -110.1672 119° Southeast 513 590 33,000  Level Salt Lake Center
05:10PM 40.2169 -109.9817 118° Southeast 517 595 33,000  Level Salt Lake Center
05:11PM 40.1497 -109.8253 119° Southeast 517 595 33,000 976 Level Salt Lake Center
05:12PM 40.0597 -109.6561 125° Southeast 508 585 35,000 1,951 Climbing Salt Lake Center
05:13PM 39.9781 -109.5242 129° Southeast 492 566 37,000 1,790 Climbing Salt Lake Center
05:14PM 39.8681 -109.3883 137° Southeast 490 564 38,700 1,306 Climbing Salt Lake Center
05:15PM 39.8008 -109.2358 120° Southeast 507 583 39,700 1,113 Climbing Salt Lake Center
05:16PM 39.7200 -109.0553 120° Southeast 517 595 41,000 629 Climbing Salt Lake Center
05:17PM 39.6500 -108.9019 121° Southeast 520 598 41,000  Level Salt Lake Center
05:18PM 39.5586 -108.6978 120° Southeast 528 608 41,000 455 Level Denver Center
05:19PM 39.4889 -108.5406 120° Southeast 532 612 42,000 1,403 Climbing Denver Center
05:20PM 39.4061 -108.3603 121° Southeast 524 603 43,900 1,366 Climbing Denver Center
05:21PM 39.3378 -108.2103 120° Southeast 510 587 44,800 1,171 Climbing Denver Center
05:22PM 39.2564 -108.0347 121° Southeast 508 585 46,300 1,065 Climbing Denver Center
05:23PM 39.1883 -107.8861 121° Southeast 504 580 47,000 339 Climbing Denver Center
05:24PM 39.1200 -107.7417 121° Southeast 497 572 47,000  Level Denver Center
05:25PM 39.0406 -107.5731 121° Southeast 493 567 47,000  Level Denver Center
05:26PM 38.9731 -107.4283 121° Southeast 494 568 47,000  Level Denver Center
05:27PM 38.8914 -107.2600 122° Southeast 497 572 47,000  Level Denver Center
05:28PM 38.8275 -107.1264 122° Southeast 500 575 47,000  Level Denver Center
05:30PM 38.7400 -106.9425 121° Southeast 505 581 47,000  Level Denver Center
05:31PM 38.6647 -106.7864 122° Southeast 503 579 47,000  Level Denver Center
05:32PM 38.5919 -106.6389 122° Southeast 505 581 47,000  Level Denver Center
05:33PM 38.5175 -106.4856 122° Southeast 506 582 47,000  Level Denver Center
05:34PM 38.4458 -106.3306 121° Southeast 507 583 47,000  Level Denver Center
05:35PM 38.3633 -106.1472 120° Southeast 505 581 47,000  Level Denver Center
05:36PM 38.2969 -106.0003 120° Southeast 499 574 47,000  Level Denver Center
05:37PM 38.2283 -105.8531 121° Southeast 503 579 47,000  Level Denver Center
05:38PM 38.1494 -105.6803 120° Southeast 506 582 47,000  Level Denver Center
05:39PM 38.0944 -105.5578 120° Southeast 501 577 47,000  Level Denver Center
05:40PM 38.0019 -105.3650 121° Southeast 500 575 47,000  Level Denver Center
05:41PM 37.9344 -105.2181 120° Southeast 503 579 47,000  Level Denver Center
05:42PM 37.8775 -105.0975 121° Southeast 502 578 47,000  Level Denver Center
05:43PM 37.7875 -104.9033 120° Southeast 500 575 47,000  Level Denver Center
05:44PM 37.7078 -104.7356 121° Southeast 499 574 47,000  Level Denver Center
05:45PM 37.6394 -104.5942 121° Southeast 495 570 47,000  Level Denver Center
05:46PM 37.5592 -104.4272 121° Southeast 499 574 47,000  Level Denver Center
05:47PM 37.4906 -104.2872 122° Southeast 495 570 47,000  Level Denver Center
05:48PM 37.4092 -104.1211 122° Southeast 506 582 47,000  Level Denver Center
05:49PM 37.3403 -103.9778 121° Southeast 509 586 47,000  Level Denver Center
05:50PM 37.2489 -103.7869 121° Southeast 505 581 47,000  Level Denver Center
05:52PM 37.1786 -103.6433 122° Southeast 506 582 47,000 -1,226 Level Denver Center
05:53PM 37.0833 -103.4517 122° Southeast 509 586 44,200 -2,957 Descending Denver Center
05:54PM 36.9850 -103.2542 122° Southeast 524 603 40,100 -3,304 Descending Albuquerque Center
05:55PM 36.8958 -103.0739 122° Southeast 541 623 36,600 -2,634 Descending Albuquerque Center
05:56PM 36.8206 -102.9203 121° Southeast 543 625 34,700 -2,049 Descending Albuquerque Center
05:57PM 36.7342 -102.7403 121° Southeast 542 624 32,400 -2,049 Descending Albuquerque Center
05:58PM 36.6572 -102.5867 122° Southeast 545 627 30,500 -1,951 Descending Albuquerque Center
05:59PM 36.5775 -102.4325 123° Southeast 548 631 28,400 -2,537 Descending Albuquerque Center
06:00PM 36.4972 -102.2764 123° Southeast 542 624 25,300 -2,634 Descending Albuquerque Center
06:01PM 36.4222 -102.1308 123° Southeast 511 588 23,000 -2,213 Descending Albuquerque Center
06:02PM 36.3483 -101.9906 123° Southeast 493 567 20,800 -2,341 Descending Albuquerque Center
06:03PM 36.2642 -101.8272 123° Southeast 475 547 18,200 -2,244 Descending Albuquerque Center
06:04PM 36.1967 -101.6992 123° Southeast 455 524 16,200 -1,918 Descending Albuquerque Center
06:05PM 36.1322 -101.5781 123° Southeast 435 501 14,300 -1,756 Descending Albuquerque Center
06:06PM 36.0769 -101.4719 123° Southeast 392 451 12,600 -1,561 Descending Albuquerque Center
06:07PM 36.0269 -101.3781 123° Southeast 345 397 11,100 -1,574 Descending Albuquerque Center
06:08PM 35.9803 -101.2897 123° Southeast 318 366 9,400 -1,610 Descending Albuquerque Center
06:09PM 35.9364 -101.2081 124° Southeast 294 338 7,800 -1,512 Descending Albuquerque Center
06:10PM 35.8950 -101.1289 123° Southeast 281 323 6,300 -1,475 Descending Albuquerque Center